createdAt,value
2019-05-06T00:00:51.925Z,9.53
2019-05-06T00:03:10.740Z,12.53
2019-05-06T00:05:40.828Z,11.28
2019-05-06T00:08:10.637Z,9.90
2019-05-06T00:10:40.456Z,8.33
2019-05-06T00:13:10.731Z,14.15
2019-05-06T00:15:40.584Z,11.38
2019-05-06T00:18:10.400Z,9.03
2019-05-06T00:20:40.676Z,15.08
2019-05-06T00:23:30.492Z,14.70
2019-05-06T00:26:18.369Z,17.27
2019-05-06T00:28:55.352Z,20.08
2019-05-06T00:31:25.468Z,12.50
2019-05-06T00:33:55.252Z,11.73
2019-05-06T00:36:25.099Z,10.32
2019-05-06T00:38:57.087Z,9.63
2019-05-06T00:41:31.335Z,8.75
2019-05-06T00:44:01.108Z,9.35
2019-05-06T00:46:31.280Z,12.18
2019-05-06T00:49:01.092Z,16.30
2019-05-06T00:51:31.049Z,9.18
2019-05-06T00:54:03.980Z,13.00
2019-05-06T00:56:34.333Z,9.28
2019-05-06T00:59:05.120Z,10.80
2019-05-06T01:01:34.980Z,12.58
2019-05-06T01:04:05.376Z,13.10
2019-05-06T01:06:35.420Z,13.18
2019-05-06T01:09:10.576Z,14.28
2019-05-06T01:11:41.589Z,9.35
2019-05-06T01:14:14.787Z,10.30
2019-05-06T01:16:44.446Z,10.23
2019-05-06T01:19:14.298Z,12.40
2019-05-06T01:21:45.210Z,14.75
2019-05-06T01:24:16.032Z,15.53
2019-05-06T01:26:45.851Z,11.95
2019-05-06T01:29:15.882Z,13.10
2019-05-06T01:31:46.336Z,11.20
2019-05-06T01:34:16.443Z,9.50
2019-05-06T01:36:47.087Z,12.80
2019-05-06T01:39:37.609Z,18.75
2019-05-06T01:42:09.032Z,10.20
2019-05-06T01:44:38.829Z,12.28
2019-05-06T01:47:08.637Z,17.02
2019-05-06T01:49:38.417Z,10.75
2019-05-06T01:52:08.198Z,14.30
2019-05-06T01:54:38.011Z,15.50
2019-05-06T01:57:07.794Z,12.60
2019-05-06T01:59:37.860Z,14.55
2019-05-06T02:02:08.414Z,15.65
2019-05-06T02:04:38.192Z,9.23
2019-05-06T02:07:07.971Z,13.48
2019-05-06T02:09:37.972Z,15.48
2019-05-06T02:12:07.764Z,16.80
2019-05-06T02:14:37.963Z,14.07
2019-05-06T02:17:07.771Z,13.45
2019-05-06T02:19:38.407Z,14.45
2019-05-06T02:22:10.681Z,14.40
2019-05-06T02:24:45.119Z,13.22
2019-05-06T02:27:15.682Z,15.75
2019-05-06T02:29:54.333Z,15.95
2019-05-06T02:32:32.941Z,11.75
2019-05-06T02:35:20.236Z,19.15
2019-05-06T02:37:50.256Z,12.95
2019-05-06T02:40:26.971Z,14.63
2019-05-06T02:42:56.757Z,8.85
2019-05-06T02:45:27.601Z,13.53
2019-05-06T02:48:05.164Z,15.30
2019-05-06T02:50:46.164Z,14.93
2019-05-06T02:53:17.689Z,14.68
2019-05-06T02:55:47.466Z,11.85
2019-05-06T02:58:17.910Z,17.07
2019-05-06T03:00:47.840Z,9.33
2019-05-06T03:03:17.622Z,15.83
2019-05-06T03:05:47.418Z,14.25
2019-05-06T03:08:17.240Z,12.43
2019-05-06T03:10:47.375Z,12.33
2019-05-06T03:13:17.167Z,9.68
2019-05-06T03:15:46.990Z,11.68
2019-05-06T03:18:17.004Z,8.58
2019-05-06T03:20:54.868Z,9.63
2019-05-06T03:23:26.309Z,12.78
2019-05-06T03:25:56.078Z,10.90
2019-05-06T03:28:26.809Z,9.55
2019-05-06T03:30:57.865Z,9.73
2019-05-06T03:33:46.813Z,12.50
2019-05-06T03:36:09.497Z,11.70
2019-05-06T03:38:33.535Z,8.75
2019-05-06T03:41:03.362Z,7.50
2019-05-06T03:43:33.996Z,10.43
2019-05-06T03:46:14.324Z,8.50
2019-05-06T03:48:55.517Z,9.45
2019-05-06T03:51:25.296Z,8.33
2019-05-06T03:53:56.806Z,10.53
2019-05-06T03:56:28.022Z,11.00
2019-05-06T03:58:59.463Z,7.85
2019-05-06T04:01:29.531Z,12.35
2019-05-06T04:03:59.461Z,6.60
2019-05-06T04:06:29.988Z,10.60
2019-05-06T04:08:59.831Z,15.35
2019-05-06T04:11:29.958Z,9.58
2019-05-06T04:14:02.711Z,11.08
2019-05-06T04:16:46.204Z,7.95
2019-05-06T04:19:18.598Z,10.95
2019-05-06T04:21:56.705Z,13.03
2019-05-06T04:24:28.241Z,11.33
2019-05-06T04:27:19.131Z,12.88
2019-05-06T04:29:49.172Z,12.95
2019-05-06T04:32:19.010Z,10.10
2019-05-06T04:34:49.096Z,14.90
2019-05-06T04:37:19.248Z,14.47
2019-05-06T04:39:52.986Z,8.50
2019-05-06T04:42:23.294Z,8.05
2019-05-06T04:44:54.110Z,11.22
2019-05-06T04:47:24.394Z,11.55
2019-05-06T04:49:55.630Z,12.82
2019-05-06T04:52:26.413Z,13.28
2019-05-06T04:54:56.191Z,10.28
2019-05-06T04:57:45.293Z,15.18
2019-05-06T05:00:15.087Z,10.23
2019-05-06T05:02:46.478Z,11.50
2019-05-06T05:05:16.659Z,11.35
2019-05-06T05:07:47.392Z,11.93
2019-05-06T05:10:24.806Z,10.15
2019-05-06T05:12:59.243Z,9.88
2019-05-06T05:15:49.072Z,12.65
2019-05-06T05:18:32.093Z,7.72
2019-05-06T05:21:02.504Z,9.50
2019-05-06T05:23:32.596Z,12.23
2019-05-06T05:26:03.046Z,7.20
2019-05-06T05:28:33.289Z,13.08
2019-05-06T05:31:03.197Z,10.32
2019-05-06T05:33:33.998Z,8.93
2019-05-06T05:36:03.820Z,10.35
2019-05-06T05:38:33.747Z,9.65
2019-05-06T05:41:03.776Z,6.78
2019-05-06T05:43:50.234Z,11.48
2019-05-06T05:46:21.771Z,10.50
2019-05-06T05:48:56.495Z,8.78
2019-05-06T05:51:27.313Z,7.45
2019-05-06T05:53:57.104Z,10.10
2019-05-06T05:56:26.994Z,9.73
2019-05-06T05:58:56.967Z,9.08
2019-05-06T06:01:27.135Z,6.80
2019-05-06T06:03:57.044Z,9.75
2019-05-06T06:06:26.974Z,12.37
2019-05-06T06:08:56.802Z,11.65
2019-05-06T06:11:28.278Z,11.18
2019-05-06T06:13:59.714Z,10.82
2019-05-06T06:16:49.150Z,12.00
2019-05-06T06:19:24.951Z,6.58
2019-05-06T06:21:59.161Z,8.20
2019-05-06T06:24:32.189Z,15.05
2019-05-06T06:27:03.356Z,11.35
2019-05-06T06:29:34.137Z,7.33
2019-05-06T06:32:17.879Z,8.18
2019-05-06T06:35:10.856Z,5.15
2019-05-06T06:37:44.460Z,10.63
2019-05-06T06:40:16.634Z,7.05
2019-05-06T06:42:48.116Z,8.55
2019-05-06T06:45:18.817Z,6.80
2019-05-06T06:47:48.681Z,5.87
2019-05-06T06:50:18.904Z,10.80
2019-05-06T06:52:48.655Z,6.45
2019-05-06T06:55:18.694Z,9.50
2019-05-06T06:57:52.801Z,9.58
2019-05-06T07:00:42.516Z,6.87
2019-05-06T07:03:15.181Z,13.88
2019-05-06T07:05:52.658Z,7.03
2019-05-06T07:08:33.958Z,14.20
2019-05-06T07:10:53.772Z,9.08
2019-05-06T07:13:23.660Z,7.62
2019-05-06T07:15:53.450Z,9.95
2019-05-06T07:18:23.450Z,7.47
2019-05-06T07:20:55.168Z,5.15
2019-05-06T07:23:27.487Z,4.87
2019-05-06T07:25:58.373Z,9.05
2019-05-06T07:28:28.202Z,7.15
2019-05-06T07:31:13.125Z,6.20
2019-05-06T07:33:29.670Z,8.73
2019-05-06T07:36:02.088Z,5.55
2019-05-06T07:38:32.577Z,5.00
2019-05-06T07:41:10.123Z,8.53
2019-05-06T07:43:42.386Z,6.42
2019-05-06T07:46:17.364Z,9.63
2019-05-06T07:48:47.924Z,9.23
2019-05-06T07:51:17.759Z,5.22
2019-05-06T07:53:47.720Z,5.15
2019-05-06T07:56:17.732Z,8.18
2019-05-06T07:58:47.655Z,6.40
2019-05-06T08:01:23.609Z,7.53
2019-05-06T08:03:53.242Z,7.85
2019-05-06T08:06:23.436Z,6.08
2019-05-06T08:08:53.874Z,4.45
2019-05-06T08:11:26.083Z,6.37
2019-05-06T08:13:55.490Z,12.13
2019-05-06T08:16:26.972Z,6.42
2019-05-06T08:18:56.882Z,11.25
2019-05-06T08:21:28.896Z,6.45
2019-05-06T08:23:58.715Z,3.75
2019-05-06T08:26:28.496Z,7.83
2019-05-06T08:28:58.275Z,5.85
2019-05-06T08:31:28.164Z,8.13
2019-05-06T08:33:58.020Z,7.25
2019-05-06T08:36:42.632Z,9.45
2019-05-06T08:39:13.959Z,7.08
2019-05-06T08:41:43.738Z,4.53
2019-05-06T08:44:14.843Z,7.10
2019-05-06T08:46:45.358Z,5.85
2019-05-06T08:49:15.379Z,6.17
2019-05-06T08:51:49.634Z,5.03
2019-05-06T08:54:27.731Z,4.25
2019-05-06T08:56:57.666Z,9.23
2019-05-06T08:59:27.465Z,5.78
2019-05-06T09:01:58.913Z,12.05
2019-05-06T09:04:29.236Z,7.80
2019-05-06T09:07:00.214Z,5.28
2019-05-06T09:09:32.397Z,6.42
2019-05-06T09:12:02.806Z,3.87
2019-05-06T09:14:32.929Z,6.03
2019-05-06T09:17:04.131Z,5.45
2019-05-06T09:19:34.284Z,6.08
2019-05-06T09:22:05.053Z,4.62
2019-05-06T09:24:34.860Z,8.30
2019-05-06T09:27:06.280Z,5.17
2019-05-06T09:29:42.737Z,5.90
2019-05-06T09:32:16.727Z,5.72
2019-05-06T09:34:49.061Z,4.40
2019-05-06T09:37:23.505Z,3.37
2019-05-06T09:39:53.495Z,5.37
2019-05-06T09:42:23.649Z,7.25
2019-05-06T09:44:54.324Z,5.25
2019-05-06T09:47:43.899Z,5.65
2019-05-06T09:50:17.291Z,3.77
2019-05-06T09:52:47.091Z,8.88
2019-05-06T09:55:32.528Z,5.72
2019-05-06T09:58:05.046Z,3.60
2019-05-06T10:00:36.720Z,8.83
2019-05-06T10:03:07.552Z,8.03
2019-05-06T10:05:38.366Z,6.58
2019-05-06T10:08:08.281Z,6.80
2019-05-06T10:10:46.646Z,4.47
2019-05-06T10:13:12.669Z,4.17
2019-05-06T10:15:43.018Z,5.97
2019-05-06T10:18:13.912Z,5.95
2019-05-06T10:20:45.945Z,5.00
2019-05-06T10:23:15.846Z,4.60
2019-05-06T10:25:46.607Z,5.28
2019-05-06T10:28:18.764Z,7.60
2019-05-06T10:30:49.977Z,7.70
2019-05-06T10:33:21.454Z,5.58
2019-05-06T10:35:53.018Z,5.03
2019-05-06T10:38:42.395Z,5.83
2019-05-06T10:41:18.324Z,4.22
2019-05-06T10:44:02.978Z,4.65
2019-05-06T10:46:32.977Z,6.05
2019-05-06T10:49:02.896Z,3.85
2019-05-06T10:51:53.013Z,4.78
2019-05-06T10:54:24.439Z,5.55
2019-05-06T10:56:57.541Z,6.15
2019-05-06T10:59:27.428Z,5.60
2019-05-06T11:01:58.879Z,4.97
2019-05-06T11:04:28.648Z,6.42
2019-05-06T11:06:58.511Z,8.95
2019-05-06T11:09:29.614Z,10.95
2019-05-06T11:12:00.100Z,9.48
2019-05-06T11:14:32.081Z,6.08
2019-05-06T11:17:04.906Z,5.72
2019-05-06T11:19:33.207Z,6.50
2019-05-06T11:22:03.805Z,6.00
2019-05-06T11:24:34.804Z,3.90
2019-05-06T11:27:04.620Z,6.47
2019-05-06T11:29:43.573Z,6.67
2019-05-06T11:32:21.334Z,5.90
2019-05-06T11:34:53.795Z,5.53
2019-05-06T11:37:26.666Z,9.45
2019-05-06T11:39:57.483Z,5.60
2019-05-06T11:42:32.255Z,9.00
2019-05-06T11:44:59.583Z,6.28
2019-05-06T11:47:29.369Z,5.45
2019-05-06T11:50:02.497Z,4.47
2019-05-06T11:52:34.649Z,6.17
2019-05-06T11:55:06.959Z,4.85
2019-05-06T11:57:38.402Z,5.00
2019-05-06T12:00:12.577Z,7.42
2019-05-06T12:02:45.116Z,7.40
2019-05-06T12:05:13.725Z,4.67
2019-05-06T12:08:00.445Z,5.83
2019-05-06T12:10:16.614Z,4.97
2019-05-06T12:12:46.412Z,5.70
2019-05-06T12:15:17.123Z,9.73
2019-05-06T12:17:46.953Z,7.40
2019-05-06T12:20:16.983Z,5.37
2019-05-06T12:22:46.769Z,5.10
2019-05-06T12:25:16.788Z,5.28
2019-05-06T12:27:47.207Z,7.75
2019-05-06T12:30:23.083Z,8.65
2019-05-06T12:33:03.192Z,7.28
2019-05-06T12:35:34.254Z,8.35
2019-05-06T12:38:23.819Z,6.35
2019-05-06T12:40:37.406Z,7.70
2019-05-06T12:43:15.945Z,6.10
2019-05-06T12:45:48.327Z,5.90
2019-05-06T12:48:20.801Z,7.20
2019-05-06T12:50:52.552Z,8.18
2019-05-06T12:53:23.298Z,6.08
2019-05-06T12:55:53.916Z,7.40
2019-05-06T12:58:23.695Z,4.53
2019-05-06T13:00:54.355Z,5.03
2019-05-06T13:03:25.469Z,8.25
2019-05-06T13:05:56.258Z,8.30
2019-05-06T13:08:32.503Z,4.12
2019-05-06T13:10:57.927Z,6.72
2019-05-06T13:13:28.693Z,8.90
2019-05-06T13:15:58.577Z,5.55
2019-05-06T13:18:28.563Z,8.23
2019-05-06T13:20:58.611Z,6.15
2019-05-06T13:23:35.026Z,7.17
2019-05-06T13:26:04.070Z,5.25
2019-05-06T13:28:35.507Z,5.22
2019-05-06T13:31:19.369Z,4.65
2019-05-06T13:33:38.749Z,4.62
2019-05-06T13:36:08.651Z,6.08
2019-05-06T13:38:38.596Z,3.87
2019-05-06T13:41:08.422Z,4.78
2019-05-06T13:43:43.329Z,5.78
2019-05-06T13:46:17.773Z,5.80
2019-05-06T13:49:02.768Z,4.17
2019-05-06T13:51:37.864Z,5.97
2019-05-06T13:54:08.659Z,8.45
2019-05-06T13:56:38.694Z,5.20
2019-05-06T13:59:08.698Z,4.47
2019-05-06T14:01:44.082Z,3.27
2019-05-06T14:04:16.022Z,4.83
2019-05-06T14:06:46.152Z,4.10
2019-05-06T14:09:28.408Z,5.70
2019-05-06T14:11:48.396Z,8.58
2019-05-06T14:14:18.397Z,5.97
2019-05-06T14:16:48.342Z,6.55
2019-05-06T14:19:18.391Z,7.67
2019-05-06T14:21:48.445Z,5.87
2019-05-06T14:24:18.324Z,5.53
2019-05-06T14:26:57.329Z,7.70
2019-05-06T14:29:44.437Z,5.17
2019-05-06T14:32:15.203Z,6.47
2019-05-06T14:34:45.880Z,5.15
2019-05-06T14:37:15.680Z,6.28
2019-05-06T14:39:54.031Z,3.70
2019-05-06T14:42:18.569Z,5.33
2019-05-06T14:44:48.358Z,8.08
2019-05-06T14:47:25.832Z,4.00
2019-05-06T14:49:55.605Z,5.40
2019-05-06T14:52:25.469Z,4.45
2019-05-06T14:54:56.933Z,6.55
2019-05-06T14:57:26.713Z,5.40
2019-05-06T14:59:57.015Z,4.87
2019-05-06T15:02:28.510Z,6.55
2019-05-06T15:04:58.379Z,7.72
2019-05-06T15:07:28.166Z,5.85
2019-05-06T15:10:15.693Z,5.83
2019-05-06T15:12:30.338Z,5.47
2019-05-06T15:15:00.156Z,5.78
2019-05-06T15:17:32.863Z,6.15
2019-05-06T15:20:02.911Z,5.78
2019-05-06T15:22:33.001Z,4.00
2019-05-06T15:25:04.107Z,2.70
2019-05-06T15:27:35.046Z,4.35
2019-05-06T15:30:16.870Z,5.05
2019-05-06T15:32:47.422Z,8.00
2019-05-06T15:35:18.962Z,4.83
2019-05-06T15:37:59.252Z,6.40
2019-05-06T15:40:32.665Z,5.28
2019-05-06T15:43:02.223Z,3.98
2019-05-06T15:45:32.538Z,7.03
2019-05-06T15:48:02.751Z,5.25
2019-05-06T15:50:32.980Z,4.50
2019-05-06T15:53:02.959Z,5.17
2019-05-06T15:55:32.839Z,3.95
2019-05-06T15:58:03.467Z,6.53
2019-05-06T16:00:53.274Z,2.83
2019-05-06T16:03:23.437Z,5.05
2019-05-06T16:05:55.202Z,5.70
2019-05-06T16:08:24.738Z,6.53
2019-05-06T16:10:58.431Z,4.15
2019-05-06T16:13:26.015Z,5.35
2019-05-06T16:15:55.896Z,7.58
2019-05-06T16:18:26.418Z,6.78
2019-05-06T16:20:57.887Z,3.47
2019-05-06T16:23:29.362Z,6.30
2019-05-06T16:25:59.149Z,7.03
2019-05-06T16:28:30.217Z,9.40
2019-05-06T16:31:02.307Z,8.78
2019-05-06T16:33:33.006Z,9.55
2019-05-06T16:36:02.870Z,8.90
2019-05-06T16:38:32.815Z,8.45
2019-05-06T16:41:12.852Z,9.05
2019-05-06T16:43:34.987Z,13.38
2019-05-06T16:46:04.883Z,9.95
2019-05-06T16:48:34.663Z,8.65
2019-05-06T16:51:05.005Z,14.85
2019-05-06T16:53:35.213Z,11.08
2019-05-06T16:56:13.165Z,10.75
2019-05-06T16:58:47.157Z,10.98
2019-05-06T17:01:16.290Z,13.20
2019-05-06T17:03:47.731Z,13.65
2019-05-06T17:06:23.082Z,10.75
2019-05-06T17:08:53.441Z,11.45
2019-05-06T17:11:30.431Z,15.45
2019-05-06T17:13:54.664Z,16.87
2019-05-06T17:16:24.520Z,12.75
2019-05-06T17:18:56.802Z,11.43
2019-05-06T17:21:29.190Z,10.82
2019-05-06T17:24:02.158Z,6.33
2019-05-06T17:26:33.850Z,11.38
2019-05-06T17:29:11.318Z,9.50
2019-05-06T17:31:45.716Z,12.15
2019-05-06T17:34:17.203Z,11.57
2019-05-06T17:36:48.668Z,15.43
2019-05-06T17:39:18.451Z,18.17
2019-05-06T17:41:49.244Z,18.02
2019-05-06T17:44:22.858Z,17.92
2019-05-06T17:47:13.111Z,15.23
2019-05-06T17:49:43.499Z,17.82
2019-05-06T17:52:15.153Z,19.37
2019-05-06T17:54:45.314Z,18.15
2019-05-06T17:57:15.769Z,16.07
2019-05-06T17:59:45.618Z,14.00
2019-05-06T18:02:19.174Z,12.78
2019-05-06T18:04:48.495Z,14.80
2019-05-06T18:07:18.601Z,14.55
2019-05-06T18:09:48.469Z,12.30
2019-05-06T18:12:18.263Z,16.55
2019-05-06T18:14:48.361Z,17.30
2019-05-06T18:17:18.408Z,17.27
2019-05-06T18:19:48.208Z,17.15
2019-05-06T18:22:22.606Z,15.30
2019-05-06T18:24:52.554Z,13.35
2019-05-06T18:27:23.072Z,17.32
2019-05-06T18:29:53.384Z,17.30
2019-05-06T18:32:23.486Z,12.53
2019-05-06T18:34:53.519Z,14.47
2019-05-06T18:37:23.473Z,12.88
2019-05-06T18:39:54.731Z,17.32
2019-05-06T18:42:25.411Z,14.38
2019-05-06T18:44:55.263Z,15.48
2019-05-06T18:47:25.071Z,17.73
2019-05-06T18:49:55.279Z,11.95
2019-05-06T18:52:25.084Z,14.35
2019-05-06T18:54:54.903Z,14.05
2019-05-06T18:57:25.401Z,14.35
2019-05-06T18:59:55.185Z,17.32
2019-05-06T19:02:26.785Z,13.05
2019-05-06T19:04:58.042Z,12.93
2019-05-06T19:07:28.008Z,12.07
2019-05-06T19:09:59.575Z,17.60
2019-05-06T19:12:39.208Z,12.88
2019-05-06T19:15:03.280Z,15.55
2019-05-06T19:17:34.224Z,11.60
2019-05-06T19:20:06.362Z,14.60
2019-05-06T19:22:36.380Z,14.13
2019-05-06T19:25:06.267Z,19.02
2019-05-06T19:27:36.067Z,25.68
2019-05-06T19:30:07.291Z,32.95
2019-05-06T19:32:37.217Z,36.28
2019-05-06T19:35:07.263Z,38.02
2019-05-06T19:37:37.112Z,40.88
2019-05-06T19:40:07.198Z,31.50
2019-05-06T19:42:48.886Z,21.25
2019-05-06T19:45:08.856Z,19.95
2019-05-06T19:47:38.941Z,20.30
2019-05-06T19:50:09.712Z,19.67
2019-05-06T19:52:39.511Z,22.50
2019-05-06T19:55:09.354Z,21.15
2019-05-06T19:57:39.362Z,21.27
2019-05-06T20:00:09.717Z,22.93
2019-05-06T20:02:39.553Z,22.67
2019-05-06T20:05:28.459Z,25.43
2019-05-06T20:07:59.932Z,22.85
2019-05-06T20:10:32.789Z,25.02
2019-05-06T20:13:05.602Z,21.23
2019-05-06T20:15:39.806Z,16.95
2019-05-06T20:18:10.712Z,16.10
2019-05-06T20:20:42.408Z,14.03
2019-05-06T20:23:12.693Z,12.58
2019-05-06T20:25:44.872Z,15.83
2019-05-06T20:28:14.299Z,14.03
2019-05-06T20:30:44.767Z,13.53
2019-05-06T20:33:15.645Z,16.10
2019-05-06T20:35:45.445Z,14.78
2019-05-06T20:38:15.244Z,15.40
2019-05-06T20:40:45.494Z,16.02
2019-05-06T20:43:20.376Z,14.60
2019-05-06T20:45:47.644Z,13.98
2019-05-06T20:48:17.822Z,17.40
2019-05-06T20:50:47.957Z,17.12
2019-05-06T20:53:17.788Z,17.50
2019-05-06T20:55:47.588Z,19.65
2019-05-06T20:58:17.610Z,21.65
2019-05-06T21:00:47.716Z,16.07
2019-05-06T21:03:17.497Z,20.02
2019-05-06T21:05:47.640Z,18.50
2019-05-06T21:08:17.470Z,18.23
2019-05-06T21:10:49.725Z,19.20
2019-05-06T21:13:29.607Z,18.20
2019-05-06T21:15:50.152Z,24.12
2019-05-06T21:18:19.941Z,23.27
2019-05-06T21:20:49.777Z,25.52
2019-05-06T21:23:25.917Z,21.75
2019-05-06T21:25:55.705Z,23.35
2019-05-06T21:28:26.152Z,22.55
2019-05-06T21:30:56.196Z,21.23
2019-05-06T21:33:25.990Z,24.57
2019-05-06T21:35:56.169Z,22.37
2019-05-06T21:38:27.143Z,23.83
2019-05-06T21:40:57.488Z,20.48
2019-05-06T21:43:27.432Z,21.10
2019-05-06T21:45:57.546Z,20.62
2019-05-06T21:48:27.410Z,23.32
2019-05-06T21:50:57.310Z,25.52
2019-05-06T21:53:27.430Z,20.80
2019-05-06T21:55:57.238Z,22.50
2019-05-06T21:58:27.418Z,19.95
2019-05-06T22:01:02.453Z,25.70
2019-05-06T22:03:32.807Z,22.02
2019-05-06T22:06:03.049Z,23.00
2019-05-06T22:08:34.018Z,22.42
2019-05-06T22:11:04.649Z,23.92
2019-05-06T22:13:34.509Z,23.42
2019-05-06T22:16:04.757Z,26.02
2019-05-06T22:18:34.952Z,24.72
2019-05-06T22:21:12.323Z,26.17
2019-05-06T22:23:58.162Z,24.65
2019-05-06T22:26:32.495Z,31.52
2019-05-06T22:29:02.450Z,24.82
2019-05-06T22:31:33.080Z,28.07
2019-05-06T22:34:03.588Z,27.55
2019-05-06T22:36:33.379Z,27.27
2019-05-06T22:39:05.525Z,21.97
2019-05-06T22:41:35.348Z,26.23
2019-05-06T22:44:13.764Z,26.82
2019-05-06T22:46:37.262Z,21.75
2019-05-06T22:49:07.092Z,22.60
2019-05-06T22:51:37.677Z,24.85
2019-05-06T22:54:07.471Z,22.65
2019-05-06T22:56:37.306Z,29.67
2019-05-06T22:59:07.087Z,25.30
2019-05-06T23:01:54.186Z,25.55
2019-05-06T23:04:24.168Z,28.62
2019-05-06T23:06:54.289Z,27.60
2019-05-06T23:09:24.999Z,29.72
2019-05-06T23:11:55.528Z,28.75
2019-05-06T23:14:31.106Z,25.62
2019-05-06T23:16:57.955Z,33.20
2019-05-06T23:19:27.938Z,28.92
2019-05-06T23:21:57.716Z,28.20
2019-05-06T23:24:33.022Z,31.05
2019-05-06T23:27:03.844Z,31.33
2019-05-06T23:29:33.641Z,32.33
2019-05-06T23:32:03.733Z,31.65
2019-05-06T23:34:33.566Z,31.60
2019-05-06T23:37:08.929Z,32.90
2019-05-06T23:40:16.792Z,33.45
2019-05-06T23:43:22.951Z,29.67
2019-05-06T23:46:29.010Z,32.60
2019-05-06T23:49:34.914Z,35.00
2019-05-06T23:52:41.033Z,32.53
2019-05-06T23:55:47.482Z,34.33
2019-05-06T23:58:16.086Z,30.45
